EIKY

Kerry Airport

Killarney, Ireland
METAR EIKY 111930Z 30007KT 270V350 9999 FEW006 SCT009 OVC013 09/07 Q1012
Observed Flight Rules
Dec-11 @ 19:30 UTC (5 hours ago) Marginal Visual Flight Rules
Wind Visibility Clouds
300° at 7 knots 10,000+ meters
  • Few at 600' AGL
  • Scattered at 900' AGL
  • Overcast at 1,300' AGL
Temperatures Readings
Current 9°C / 48°F
Dewpoint 7°C / 45°F
Humidity 87%
Altimeter 29.88" Hg
Pressure 1012 hPa
Elevation 34
METAR EIKY 111930Z 30007KT 270V350 9999 FEW006 SCT009 OVC013 09/07 Q1012
Observed Flight Rules
Dec-11 @ 19:30 UTC
(5 hours ago)
MVFR
Wind Visibility
300° at 7 knots 10,000+ meters
Clouds
  • Few at 600' AGL
  • Scattered at 900' AGL
  • Overcast at 1,300' AGL
Temperature Dewpoint
9°C / 48°F 7°C / 45°F
Humidity Altimeter Pressure
87% 29.88" Hg 1012 hPa